sensor_id;sensor_type;location;lat;lon;timestamp;pressure;altitude;pressure_sealevel;temperature;humidity
14089;BME280;7120;52.890;6.040;2022-10-16T00:00:40;100771.13;;;13.53;85.39
14089;BME280;7120;52.890;6.040;2022-10-16T00:03:07;100778.09;;;13.67;84.90
14089;BME280;7120;52.890;6.040;2022-10-16T00:05:33;100771.78;;;13.58;85.11
14089;BME280;7120;52.890;6.040;2022-10-16T00:08:02;100780.19;;;13.53;85.93
14089;BME280;7120;52.890;6.040;2022-10-16T00:10:28;100769.69;;;13.55;85.58
14089;BME280;7120;52.890;6.040;2022-10-16T00:12:53;100772.09;;;13.65;85.13
14089;BME280;7120;52.890;6.040;2022-10-16T00:15:19;100774.38;;;13.63;84.67
14089;BME280;7120;52.890;6.040;2022-10-16T00:17:44;100776.31;;;13.63;84.72
14089;BME280;7120;52.890;6.040;2022-10-16T00:20:09;100768.56;;;13.56;84.62
14089;BME280;7120;52.890;6.040;2022-10-16T00:22:35;100742.03;;;13.52;84.98
14089;BME280;7120;52.890;6.040;2022-10-16T00:25:00;100770.81;;;13.71;84.62
14089;BME280;7120;52.890;6.040;2022-10-16T00:27:25;100763.19;;;13.77;83.91
14089;BME280;7120;52.890;6.040;2022-10-16T00:29:52;100771.59;;;13.72;84.73
14089;BME280;7120;52.890;6.040;2022-10-16T00:32:18;100763.34;;;13.72;84.43
14089;BME280;7120;52.890;6.040;2022-10-16T00:34:44;100762.56;;;13.71;84.83
14089;BME280;7120;52.890;6.040;2022-10-16T00:37:09;100769.03;;;13.76;84.14
14089;BME280;7120;52.890;6.040;2022-10-16T00:39:35;100769.00;;;13.84;84.34
14089;BME280;7120;52.890;6.040;2022-10-16T00:42:00;100770.31;;;13.78;84.24
14089;BME280;7120;52.890;6.040;2022-10-16T00:47:21;100769.16;;;13.79;83.40
14089;BME280;7120;52.890;6.040;2022-10-16T00:49:49;100765.16;;;13.77;83.83
14089;BME280;7120;52.890;6.040;2022-10-16T00:52:16;100760.13;;;13.70;83.21
14089;BME280;7120;52.890;6.040;2022-10-16T00:54:41;100770.47;;;13.82;84.84
14089;BME280;7120;52.890;6.040;2022-10-16T00:57:07;100767.53;;;13.87;84.31
14089;BME280;7120;52.890;6.040;2022-10-16T00:59:36;100773.69;;;13.92;84.05
14089;BME280;7120;52.890;6.040;2022-10-16T01:02:05;100765.28;;;13.97;83.03
14089;BME280;7120;52.890;6.040;2022-10-16T01:04:35;100758.97;;;13.88;83.21
14089;BME280;7120;52.890;6.040;2022-10-16T01:12:58;100759.50;;;13.82;82.77
14089;BME280;7120;52.890;6.040;2022-10-16T01:18:20;100768.69;;;13.86;82.83
14089;BME280;7120;52.890;6.040;2022-10-16T01:20:59;100758.34;;;13.65;83.66
14089;BME280;7120;52.890;6.040;2022-10-16T01:24:17;100764.34;;;13.76;82.75
14089;BME280;7120;52.890;6.040;2022-10-16T01:29:37;100754.78;;;13.73;82.33
14089;BME280;7120;52.890;6.040;2022-10-16T01:32:12;100767.09;;;13.67;82.69
14089;BME280;7120;52.890;6.040;2022-10-16T01:37:48;100760.31;;;13.56;83.81
14089;BME280;7120;52.890;6.040;2022-10-16T01:40:16;100763.84;;;13.57;83.04
14089;BME280;7120;52.890;6.040;2022-10-16T01:42:47;100771.75;;;13.67;82.58
14089;BME280;7120;52.890;6.040;2022-10-16T01:45:15;100766.91;;;13.72;82.89
14089;BME280;7120;52.890;6.040;2022-10-16T01:47:44;100764.50;;;13.62;82.74
14089;BME280;7120;52.890;6.040;2022-10-16T01:50:12;100758.84;;;13.67;82.79
14089;BME280;7120;52.890;6.040;2022-10-16T01:52:43;100753.19;;;13.64;82.62
14089;BME280;7120;52.890;6.040;2022-10-16T01:55:12;100748.66;;;13.59;82.01
14089;BME280;7120;52.890;6.040;2022-10-16T01:57:42;100755.13;;;13.63;82.09
14089;BME280;7120;52.890;6.040;2022-10-16T02:00:11;100759.00;;;13.62;82.42
14089;BME280;7120;52.890;6.040;2022-10-16T02:02:39;100763.84;;;13.65;82.26
14089;BME280;7120;52.890;6.040;2022-10-16T02:07:42;100760.47;;;13.68;82.17
14089;BME280;7120;52.890;6.040;2022-10-16T02:10:08;100761.13;;;13.57;82.48
14089;BME280;7120;52.890;6.040;2022-10-16T02:12:36;100768.53;;;13.65;82.43
14089;BME280;7120;52.890;6.040;2022-10-16T02:15:05;100769.34;;;13.65;81.49
14089;BME280;7120;52.890;6.040;2022-10-16T02:17:31;100767.09;;;13.67;81.65
14089;BME280;7120;52.890;6.040;2022-10-16T02:19:57;100758.22;;;13.62;82.33
14089;BME280;7120;52.890;6.040;2022-10-16T02:22:45;100770.97;;;13.66;81.59
14089;BME280;7120;52.890;6.040;2022-10-16T02:25:22;100774.81;;;13.74;82.22
14089;BME280;7120;52.890;6.040;2022-10-16T02:28:04;100772.59;;;13.76;81.74
14089;BME280;7120;52.890;6.040;2022-10-16T02:30:50;100769.66;;;13.81;81.19
14089;BME280;7120;52.890;6.040;2022-10-16T02:33:21;100763.03;;;13.65;81.96
14089;BME280;7120;52.890;6.040;2022-10-16T02:35:49;100769.53;;;13.69;81.92
14089;BME280;7120;52.890;6.040;2022-10-16T02:38:16;100772.91;;;13.83;81.83
14089;BME280;7120;52.890;6.040;2022-10-16T02:40:42;100762.88;;;13.79;81.32
14089;BME280;7120;52.890;6.040;2022-10-16T02:43:08;100759.34;;;13.69;81.21
14089;BME280;7120;52.890;6.040;2022-10-16T02:45:34;100772.72;;;13.88;81.16
14089;BME280;7120;52.890;6.040;2022-10-16T02:47:59;100784.38;;;13.85;81.24
14089;BME280;7120;52.890;6.040;2022-10-16T02:50:25;100782.09;;;13.87;81.28
14089;BME280;7120;52.890;6.040;2022-10-16T02:52:51;100776.28;;;13.80;81.31
14089;BME280;7120;52.890;6.040;2022-10-16T02:55:16;100764.50;;;13.71;81.74
14089;BME280;7120;52.890;6.040;2022-10-16T02:57:41;100776.63;;;13.79;81.46
14089;BME280;7120;52.890;6.040;2022-10-16T03:00:12;100781.31;;;13.95;81.22
14089;BME280;7120;52.890;6.040;2022-10-16T03:02:37;100784.38;;;13.77;81.71
14089;BME280;7120;52.890;6.040;2022-10-16T03:05:03;100775.34;;;13.76;81.21
14089;BME280;7120;52.890;6.040;2022-10-16T03:07:28;100796.31;;;13.81;82.45
14089;BME280;7120;52.890;6.040;2022-10-16T03:09:54;100790.84;;;13.81;82.44
14089;BME280;7120;52.890;6.040;2022-10-16T03:12:20;100777.72;;;13.86;80.95
14089;BME280;7120;52.890;6.040;2022-10-16T03:14:46;100774.66;;;13.88;81.01
14089;BME280;7120;52.890;6.040;2022-10-16T03:17:11;100784.06;;;13.78;81.56
14089;BME280;7120;52.890;6.040;2022-10-16T03:19:38;100786.66;;;13.74;82.02
14089;BME280;7120;52.890;6.040;2022-10-16T03:22:03;100796.81;;;13.74;82.25
14089;BME280;7120;52.890;6.040;2022-10-16T03:24:29;100800.06;;;13.85;82.05
14089;BME280;7120;52.890;6.040;2022-10-16T03:26:54;100817.84;;;13.96;81.66
14089;BME280;7120;52.890;6.040;2022-10-16T03:29:20;100805.88;;;13.92;82.62
14089;BME280;7120;52.890;6.040;2022-10-16T03:31:45;100807.97;;;14.04;81.54
14089;BME280;7120;52.890;6.040;2022-10-16T03:34:11;100806.84;;;13.87;82.25
14089;BME280;7120;52.890;6.040;2022-10-16T03:36:36;100805.56;;;13.85;82.92
14089;BME280;7120;52.890;6.040;2022-10-16T03:39:02;100830.44;;;13.88;83.40
14089;BME280;7120;52.890;6.040;2022-10-16T03:41:27;100825.47;;;13.82;82.47
14089;BME280;7120;52.890;6.040;2022-10-16T03:43:53;100809.78;;;13.82;82.35
14089;BME280;7120;52.890;6.040;2022-10-16T03:46:18;100813.78;;;13.93;82.76
14089;BME280;7120;52.890;6.040;2022-10-16T03:48:43;100795.03;;;13.78;82.67
14089;BME280;7120;52.890;6.040;2022-10-16T03:51:09;100817.69;;;13.75;83.53
14089;BME280;7120;52.890;6.040;2022-10-16T03:53:34;100810.41;;;13.70;84.03
14089;BME280;7120;52.890;6.040;2022-10-16T03:55:59;100789.41;;;13.57;83.52
14089;BME280;7120;52.890;6.040;2022-10-16T03:58:25;100813.63;;;13.72;83.59
14089;BME280;7120;52.890;6.040;2022-10-16T04:00:50;100810.41;;;13.70;83.63
14089;BME280;7120;52.890;6.040;2022-10-16T04:03:16;100818.81;;;13.83;83.54
14089;BME280;7120;52.890;6.040;2022-10-16T04:05:42;100818.66;;;13.70;83.98
14089;BME280;7120;52.890;6.040;2022-10-16T04:08:07;100819.13;;;13.72;83.73
14089;BME280;7120;52.890;6.040;2022-10-16T04:10:33;100819.31;;;13.67;83.92
14089;BME280;7120;52.890;6.040;2022-10-16T04:12:58;100816.06;;;13.57;84.75
14089;BME280;7120;52.890;6.040;2022-10-16T04:15:24;100836.44;;;13.64;84.71
14089;BME280;7120;52.890;6.040;2022-10-16T04:17:50;100843.41;;;13.70;84.99
14089;BME280;7120;52.890;6.040;2022-10-16T04:20:16;100836.91;;;13.66;85.45
14089;BME280;7120;52.890;6.040;2022-10-16T04:22:42;100849.69;;;13.71;84.56
14089;BME280;7120;52.890;6.040;2022-10-16T04:25:07;100866.03;;;13.76;84.74
14089;BME280;7120;52.890;6.040;2022-10-16T04:27:33;100859.22;;;13.73;84.74
14089;BME280;7120;52.890;6.040;2022-10-16T04:29:59;100870.88;;;13.88;84.68
14089;BME280;7120;52.890;6.040;2022-10-16T04:32:25;100871.34;;;13.81;84.65
14089;BME280;7120;52.890;6.040;2022-10-16T04:34:50;100868.31;;;13.83;84.47
14089;BME280;7120;52.890;6.040;2022-10-16T04:37:16;100853.41;;;13.92;83.80
14089;BME280;7120;52.890;6.040;2022-10-16T04:39:41;100865.88;;;13.98;84.08
14089;BME280;7120;52.890;6.040;2022-10-16T04:42:06;100861.50;;;13.97;83.97
14089;BME280;7120;52.890;6.040;2022-10-16T04:44:32;100858.91;;;14.01;84.05
14089;BME280;7120;52.890;6.040;2022-10-16T04:46:57;100873.78;;;14.00;83.88
14089;BME280;7120;52.890;6.040;2022-10-16T04:49:22;100871.03;;;14.00;84.19
14089;BME280;7120;52.890;6.040;2022-10-16T04:51:48;100867.81;;;13.98;84.01
14089;BME280;7120;52.890;6.040;2022-10-16T04:54:13;100873.78;;;14.09;83.23
14089;BME280;7120;52.890;6.040;2022-10-16T04:56:38;100877.34;;;14.00;83.69
14089;BME280;7120;52.890;6.040;2022-10-16T04:59:16;100876.84;;;14.07;83.69
14089;BME280;7120;52.890;6.040;2022-10-16T05:01:42;100883.81;;;14.05;84.20
14089;BME280;7120;52.890;6.040;2022-10-16T05:04:08;100883.50;;;13.97;83.92
14089;BME280;7120;52.890;6.040;2022-10-16T05:06:33;100892.38;;;13.94;85.14
14089;BME280;7120;52.890;6.040;2022-10-16T05:08:59;100889.00;;;13.97;84.64
14089;BME280;7120;52.890;6.040;2022-10-16T05:11:24;100890.75;;;14.02;84.23
14089;BME280;7120;52.890;6.040;2022-10-16T05:13:50;100894.00;;;14.13;83.80
14089;BME280;7120;52.890;6.040;2022-10-16T05:16:15;100898.22;;;14.01;84.60
14089;BME280;7120;52.890;6.040;2022-10-16T05:18:40;100905.66;;;14.01;85.18
14089;BME280;7120;52.890;6.040;2022-10-16T05:21:06;100900.34;;;14.05;84.41
14089;BME280;7120;52.890;6.040;2022-10-16T05:23:32;100892.56;;;14.07;84.17
14089;BME280;7120;52.890;6.040;2022-10-16T05:25:58;100901.13;;;14.05;85.20
14089;BME280;7120;52.890;6.040;2022-10-16T05:28:26;100905.81;;;14.13;84.72
14089;BME280;7120;52.890;6.040;2022-10-16T05:30:52;100906.78;;;13.91;85.16
14089;BME280;7120;52.890;6.040;2022-10-16T05:33:22;100920.06;;;13.98;84.83
14089;BME280;7120;52.890;6.040;2022-10-16T05:35:48;100911.47;;;13.99;85.09
14089;BME280;7120;52.890;6.040;2022-10-16T05:38:13;100920.22;;;13.93;85.17
14089;BME280;7120;52.890;6.040;2022-10-16T05:40:40;100927.84;;;13.96;85.34
14089;BME280;7120;52.890;6.040;2022-10-16T05:43:05;100926.38;;;13.90;85.43
14089;BME280;7120;52.890;6.040;2022-10-16T05:45:31;100945.63;;;13.98;85.53
14089;BME280;7120;52.890;6.040;2022-10-16T05:47:56;100945.09;;;13.88;85.61
14089;BME280;7120;52.890;6.040;2022-10-16T05:50:21;100943.19;;;13.97;85.55
14089;BME280;7120;52.890;6.040;2022-10-16T05:52:47;100944.97;;;14.10;84.45
14089;BME280;7120;52.890;6.040;2022-10-16T05:55:12;100951.78;;;14.04;84.70
14089;BME280;7120;52.890;6.040;2022-10-16T05:57:38;100952.91;;;14.03;85.15
14089;BME280;7120;52.890;6.040;2022-10-16T06:00:04;100947.09;;;14.05;84.42
14089;BME280;7120;52.890;6.040;2022-10-16T06:02:30;100938.50;;;13.89;85.28
14089;BME280;7120;52.890;6.040;2022-10-16T06:04:56;100965.81;;;13.94;85.78
14089;BME280;7120;52.890;6.040;2022-10-16T06:07:22;100967.75;;;13.85;86.17
14089;BME280;7120;52.890;6.040;2022-10-16T06:09:48;100971.31;;;13.94;85.76
14089;BME280;7120;52.890;6.040;2022-10-16T06:12:15;100975.06;;;13.89;85.61
14089;BME280;7120;52.890;6.040;2022-10-16T06:14:40;100962.91;;;13.82;85.54
14089;BME280;7120;52.890;6.040;2022-10-16T06:17:05;100962.25;;;13.93;85.79
14089;BME280;7120;52.890;6.040;2022-10-16T06:19:31;100951.72;;;13.78;85.66
14089;BME280;7120;52.890;6.040;2022-10-16T06:21:56;100949.44;;;13.71;86.45
14089;BME280;7120;52.890;6.040;2022-10-16T06:24:23;100971.78;;;13.87;86.05
14089;BME280;7120;52.890;6.040;2022-10-16T06:26:48;100979.09;;;14.00;85.35
14089;BME280;7120;52.890;6.040;2022-10-16T06:29:14;100985.41;;;14.01;85.48
14089;BME280;7120;52.890;6.040;2022-10-16T06:31:39;100971.03;;;13.95;85.62
14089;BME280;7120;52.890;6.040;2022-10-16T06:34:05;100984.59;;;14.09;84.74
14089;BME280;7120;52.890;6.040;2022-10-16T06:36:34;100981.84;;;14.09;84.69
14089;BME280;7120;52.890;6.040;2022-10-16T06:39:00;100977.66;;;14.12;84.59
14089;BME280;7120;52.890;6.040;2022-10-16T06:41:25;100988.34;;;14.13;85.09
14089;BME280;7120;52.890;6.040;2022-10-16T06:43:51;100989.13;;;13.96;85.13
14089;BME280;7120;52.890;6.040;2022-10-16T06:46:20;100999.81;;;14.15;84.80
14089;BME280;7120;52.890;6.040;2022-10-16T06:48:46;101002.75;;;14.19;84.53
14089;BME280;7120;52.890;6.040;2022-10-16T06:53:41;101016.34;;;14.24;84.47
14089;BME280;7120;52.890;6.040;2022-10-16T06:56:12;101022.63;;;14.07;85.26
14089;BME280;7120;52.890;6.040;2022-10-16T06:58:38;101030.25;;;14.10;85.21
14089;BME280;7120;52.890;6.040;2022-10-16T07:01:05;101013.56;;;13.98;85.55
14089;BME280;7120;52.890;6.040;2022-10-16T07:03:30;101017.78;;;14.13;85.84
14089;BME280;7120;52.890;6.040;2022-10-16T07:05:56;101028.13;;;14.07;86.37
14089;BME280;7120;52.890;6.040;2022-10-16T07:08:21;101027.31;;;13.98;87.03
14089;BME280;7120;52.890;6.040;2022-10-16T07:10:47;101017.41;;;13.88;87.97
14089;BME280;7120;52.890;6.040;2022-10-16T07:13:12;101045.53;;;13.85;88.41
14089;BME280;7120;52.890;6.040;2022-10-16T07:15:39;101037.75;;;13.79;88.41
14089;BME280;7120;52.890;6.040;2022-10-16T07:18:05;101040.03;;;13.85;88.63
14089;BME280;7120;52.890;6.040;2022-10-16T07:20:31;101053.19;;;13.97;88.68
14089;BME280;7120;52.890;6.040;2022-10-16T07:22:56;101063.38;;;14.05;87.78
14089;BME280;7120;52.890;6.040;2022-10-16T07:25:21;101055.13;;;13.96;88.14
14089;BME280;7120;52.890;6.040;2022-10-16T07:27:47;101068.75;;;14.19;87.40
14089;BME280;7120;52.890;6.040;2022-10-16T07:30:12;101053.06;;;14.19;86.56
14089;BME280;7120;52.890;6.040;2022-10-16T07:32:37;101058.09;;;14.17;86.43
14089;BME280;7120;52.890;6.040;2022-10-16T07:35:03;101081.72;;;14.27;86.44
14089;BME280;7120;52.890;6.040;2022-10-16T07:37:29;101089.38;;;14.47;86.08
14089;BME280;7120;52.890;6.040;2022-10-16T07:39:54;101101.53;;;14.64;85.29
14089;BME280;7120;52.890;6.040;2022-10-16T07:42:19;101089.06;;;14.49;84.68
14089;BME280;7120;52.890;6.040;2022-10-16T07:44:45;101095.22;;;14.54;84.90
14089;BME280;7120;52.890;6.040;2022-10-16T07:47:10;101117.56;;;14.62;84.28
14089;BME280;7120;52.890;6.040;2022-10-16T07:49:36;101116.91;;;14.65;83.19
14089;BME280;7120;52.890;6.040;2022-10-16T07:52:01;101129.56;;;14.92;82.68
14089;BME280;7120;52.890;6.040;2022-10-16T07:54:27;101122.91;;;14.93;83.17
14089;BME280;7120;52.890;6.040;2022-10-16T07:56:52;101111.91;;;14.75;82.44
14089;BME280;7120;52.890;6.040;2022-10-16T07:59:17;101115.47;;;14.84;81.97
14089;BME280;7120;52.890;6.040;2022-10-16T08:01:43;101125.19;;;14.82;81.94
14089;BME280;7120;52.890;6.040;2022-10-16T08:04:08;101123.72;;;14.59;82.88
14089;BME280;7120;52.890;6.040;2022-10-16T08:06:36;101142.16;;;14.49;84.63
14089;BME280;7120;52.890;6.040;2022-10-16T08:09:02;101132.41;;;14.43;84.62
14089;BME280;7120;52.890;6.040;2022-10-16T08:11:27;101121.72;;;14.42;84.64
14089;BME280;7120;52.890;6.040;2022-10-16T08:13:53;101145.63;;;14.81;83.15
14089;BME280;7120;52.890;6.040;2022-10-16T08:16:18;101134.28;;;14.82;83.58
14089;BME280;7120;52.890;6.040;2022-10-16T08:18:44;101150.94;;;15.21;82.42
14089;BME280;7120;52.890;6.040;2022-10-16T08:21:15;101152.66;;;15.69;81.70
14089;BME280;7120;52.890;6.040;2022-10-16T08:23:41;101151.41;;;16.04;79.48
14089;BME280;7120;52.890;6.040;2022-10-16T08:26:08;101159.94;;;16.50;78.31
14089;BME280;7120;52.890;6.040;2022-10-16T08:28:34;101148.06;;;16.19;78.08
14089;BME280;7120;52.890;6.040;2022-10-16T08:31:07;101155.28;;;16.62;77.60
14089;BME280;7120;52.890;6.040;2022-10-16T08:33:32;101145.88;;;16.34;76.54
14089;BME280;7120;52.890;6.040;2022-10-16T08:36:00;101175.75;;;16.70;76.20
14089;BME280;7120;52.890;6.040;2022-10-16T08:38:25;101173.13;;;16.73;75.72
14089;BME280;7120;52.890;6.040;2022-10-16T08:40:51;101163.78;;;16.87;75.84
14089;BME280;7120;52.890;6.040;2022-10-16T08:46:02;101185.47;;;17.18;73.13
14089;BME280;7120;52.890;6.040;2022-10-16T08:48:40;101189.56;;;17.33;72.89
14089;BME280;7120;52.890;6.040;2022-10-16T08:51:12;101187.41;;;17.17;73.62
14089;BME280;7120;52.890;6.040;2022-10-16T08:53:44;101196.16;;;17.40;72.47
14089;BME280;7120;52.890;6.040;2022-10-16T08:56:11;101198.06;;;17.48;71.38
14089;BME280;7120;52.890;6.040;2022-10-16T08:58:36;101184.72;;;17.63;71.62
14089;BME280;7120;52.890;6.040;2022-10-16T09:01:04;101201.50;;;17.78;70.79
14089;BME280;7120;52.890;6.040;2022-10-16T09:14:18;101227.19;;;18.12;70.71
14089;BME280;7120;52.890;6.040;2022-10-16T09:16:54;101232.47;;;18.05;70.41
14089;BME280;7120;52.890;6.040;2022-10-16T09:19:28;101246.25;;;17.80;69.64
14089;BME280;7120;52.890;6.040;2022-10-16T09:21:57;101261.31;;;18.16;70.18
14089;BME280;7120;52.890;6.040;2022-10-16T09:24:26;101255.47;;;18.42;69.27
14089;BME280;7120;52.890;6.040;2022-10-16T09:26:52;101263.44;;;17.65;70.74
14089;BME280;7120;52.890;6.040;2022-10-16T09:29:19;101262.28;;;17.66;71.19
14089;BME280;7120;52.890;6.040;2022-10-16T09:31:50;101266.84;;;17.71;71.18
14089;BME280;7120;52.890;6.040;2022-10-16T09:36:48;101284.00;;;16.93;72.82
14089;BME280;7120;52.890;6.040;2022-10-16T09:39:14;101269.91;;;16.86;72.33
14089;BME280;7120;52.890;6.040;2022-10-16T09:41:42;101277.28;;;17.02;72.85
14089;BME280;7120;52.890;6.040;2022-10-16T09:44:29;101285.41;;;17.28;73.41
14089;BME280;7120;52.890;6.040;2022-10-16T09:47:15;101282.41;;;17.34;70.78
14089;BME280;7120;52.890;6.040;2022-10-16T09:49:56;101252.13;;;16.95;71.78
14089;BME280;7120;52.890;6.040;2022-10-16T09:52:24;101290.56;;;17.09;71.94
14089;BME280;7120;52.890;6.040;2022-10-16T09:54:52;101291.91;;;17.24;71.29
14089;BME280;7120;52.890;6.040;2022-10-16T09:57:18;101300.66;;;17.55;71.76
14089;BME280;7120;52.890;6.040;2022-10-16T09:59:54;101297.00;;;17.64;70.97
14089;BME280;7120;52.890;6.040;2022-10-16T10:02:30;101304.00;;;17.61;70.42
14089;BME280;7120;52.890;6.040;2022-10-16T10:04:56;101298.59;;;17.86;70.52
14089;BME280;7120;52.890;6.040;2022-10-16T10:07:27;101288.16;;;17.70;70.57
14089;BME280;7120;52.890;6.040;2022-10-16T10:09:54;101301.53;;;18.01;69.50
14089;BME280;7120;52.890;6.040;2022-10-16T10:12:27;101314.03;;;18.07;70.15
14089;BME280;7120;52.890;6.040;2022-10-16T10:14:58;101317.53;;;17.96;69.51
14089;BME280;7120;52.890;6.040;2022-10-16T10:17:28;101310.50;;;18.19;68.34
14089;BME280;7120;52.890;6.040;2022-10-16T10:20:21;101322.81;;;18.22;70.65
14089;BME280;7120;52.890;6.040;2022-10-16T10:22:45;101328.81;;;18.11;68.43
14089;BME280;7120;52.890;6.040;2022-10-16T10:30:27;101344.56;;;18.44;65.48
14089;BME280;7120;52.890;6.040;2022-10-16T10:38:41;101349.03;;;19.06;64.37
14089;BME280;7120;52.890;6.040;2022-10-16T10:41:27;101354.91;;;19.29;62.54
14089;BME280;7120;52.890;6.040;2022-10-16T10:46:42;101356.03;;;19.65;61.41
14089;BME280;7120;52.890;6.040;2022-10-16T10:54:50;101372.31;;;20.07;60.88
14089;BME280;7120;52.890;6.040;2022-10-16T10:57:28;101382.59;;;20.34;57.51
14089;BME280;7120;52.890;6.040;2022-10-16T11:00:15;101381.00;;;20.33;59.07
14089;BME280;7120;52.890;6.040;2022-10-16T11:07:58;101400.06;;;21.26;55.04
14089;BME280;7120;52.890;6.040;2022-10-16T11:15:48;101376.13;;;21.56;52.71
14089;BME280;7120;52.890;6.040;2022-10-16T11:18:19;101391.91;;;21.68;52.54
14089;BME280;7120;52.890;6.040;2022-10-16T11:21:08;101394.19;;;21.62;50.13
14089;BME280;7120;52.890;6.040;2022-10-16T11:26:23;101398.34;;;21.53;52.46
14089;BME280;7120;52.890;6.040;2022-10-16T11:28:53;101394.25;;;22.20;51.58
14089;BME280;7120;52.890;6.040;2022-10-16T11:31:38;101394.03;;;21.55;49.96
14089;BME280;7120;52.890;6.040;2022-10-16T11:34:28;101399.25;;;21.76;51.37
14089;BME280;7120;52.890;6.040;2022-10-16T11:37:09;101407.59;;;21.76;49.91
14089;BME280;7120;52.890;6.040;2022-10-16T11:39:38;101412.25;;;22.07;49.52
14089;BME280;7120;52.890;6.040;2022-10-16T11:42:22;101412.25;;;22.46;48.08
14089;BME280;7120;52.890;6.040;2022-10-16T11:45:07;101407.16;;;23.17;45.69
14089;BME280;7120;52.890;6.040;2022-10-16T11:50:28;101414.34;;;22.10;46.62
14089;BME280;7120;52.890;6.040;2022-10-16T11:55:45;101420.09;;;21.47;48.08
14089;BME280;7120;52.890;6.040;2022-10-16T11:58:16;101428.06;;;21.49;48.64
14089;BME280;7120;52.890;6.040;2022-10-16T12:00:51;101434.81;;;21.32;49.70
14089;BME280;7120;52.890;6.040;2022-10-16T12:03:32;101437.41;;;21.25;46.52
14089;BME280;7120;52.890;6.040;2022-10-16T12:08:55;101441.88;;;21.13;49.11
14089;BME280;7120;52.890;6.040;2022-10-16T12:14:05;101447.56;;;21.17;46.19
14089;BME280;7120;52.890;6.040;2022-10-16T12:16:31;101447.63;;;20.73;47.83
14089;BME280;7120;52.890;6.040;2022-10-16T12:19:13;101446.19;;;21.27;48.08
14089;BME280;7120;52.890;6.040;2022-10-16T12:21:40;101448.25;;;21.61;46.30
14089;BME280;7120;52.890;6.040;2022-10-16T12:24:06;101453.75;;;21.93;44.94
14089;BME280;7120;52.890;6.040;2022-10-16T12:26:45;101456.69;;;22.00;47.35
14089;BME280;7120;52.890;6.040;2022-10-16T12:29:23;101459.97;;;21.35;46.08
14089;BME280;7120;52.890;6.040;2022-10-16T12:31:53;101455.28;;;21.08;47.06
14089;BME280;7120;52.890;6.040;2022-10-16T12:34:29;101453.13;;;21.01;46.41
14089;BME280;7120;52.890;6.040;2022-10-16T12:36:55;101462.88;;;21.27;46.36
14089;BME280;7120;52.890;6.040;2022-10-16T12:39:32;101460.75;;;21.52;45.23
14089;BME280;7120;52.890;6.040;2022-10-16T12:42:02;101474.44;;;21.76;44.52
14089;BME280;7120;52.890;6.040;2022-10-16T12:44:33;101475.91;;;21.54;46.16
14089;BME280;7120;52.890;6.040;2022-10-16T12:46:59;101470.66;;;22.04;44.58
14089;BME280;7120;52.890;6.040;2022-10-16T12:51:54;101488.50;;;21.99;45.35
14089;BME280;7120;52.890;6.040;2022-10-16T13:00:08;101491.31;;;22.77;44.47
14089;BME280;7120;52.890;6.040;2022-10-16T13:13:50;101503.84;;;21.42;45.19
14089;BME280;7120;52.890;6.040;2022-10-16T13:19:24;101518.22;;;20.56;47.47
14089;BME280;7120;52.890;6.040;2022-10-16T13:23:00;101504.63;;;20.67;48.13
14089;BME280;7120;52.890;6.040;2022-10-16T13:27:46;101528.63;;;20.19;51.90
14089;BME280;7120;52.890;6.040;2022-10-16T13:30:27;101527.22;;;20.66;50.66
14089;BME280;7120;52.890;6.040;2022-10-16T13:33:32;101535.63;;;20.29;50.08
14089;BME280;7120;52.890;6.040;2022-10-16T13:35:59;101528.63;;;20.07;51.34
14089;BME280;7120;52.890;6.040;2022-10-16T13:38:30;101537.44;;;20.09;52.31
14089;BME280;7120;52.890;6.040;2022-10-16T13:40:58;101537.81;;;19.95;51.46
14089;BME280;7120;52.890;6.040;2022-10-16T13:43:34;101533.50;;;19.86;52.76
14089;BME280;7120;52.890;6.040;2022-10-16T13:46:15;101533.50;;;19.49;52.79
14089;BME280;7120;52.890;6.040;2022-10-16T13:48:41;101540.63;;;19.38;52.63
14089;BME280;7120;52.890;6.040;2022-10-16T13:51:15;101534.13;;;19.21;52.74
14089;BME280;7120;52.890;6.040;2022-10-16T13:53:41;101524.84;;;18.93;51.80
14089;BME280;7120;52.890;6.040;2022-10-16T13:56:12;101537.44;;;18.49;54.04
14089;BME280;7120;52.890;6.040;2022-10-16T13:58:37;101533.78;;;18.36;53.56
14089;BME280;7120;52.890;6.040;2022-10-16T14:01:05;101541.50;;;18.72;53.71
14089;BME280;7120;52.890;6.040;2022-10-16T14:03:40;101541.69;;;18.46;54.40
14089;BME280;7120;52.890;6.040;2022-10-16T14:06:12;101544.81;;;18.45;54.70
14089;BME280;7120;52.890;6.040;2022-10-16T14:08:42;101551.13;;;18.24;53.75
14089;BME280;7120;52.890;6.040;2022-10-16T14:11:09;101545.56;;;18.03;55.38
14089;BME280;7120;52.890;6.040;2022-10-16T14:13:37;101557.91;;;18.15;55.46
14089;BME280;7120;52.890;6.040;2022-10-16T14:16:09;101564.72;;;18.17;55.58
14089;BME280;7120;52.890;6.040;2022-10-16T14:18:37;101554.38;;;18.05;55.72
14089;BME280;7120;52.890;6.040;2022-10-16T14:21:12;101549.88;;;17.63;56.65
14089;BME280;7120;52.890;6.040;2022-10-16T14:23:40;101572.66;;;17.98;56.53
14089;BME280;7120;52.890;6.040;2022-10-16T14:26:17;101582.38;;;17.74;59.85
14089;BME280;7120;52.890;6.040;2022-10-16T14:28:45;101580.41;;;17.83;58.76
14089;BME280;7120;52.890;6.040;2022-10-16T14:31:31;101581.81;;;17.90;57.12
14089;BME280;7120;52.890;6.040;2022-10-16T14:33:58;101588.19;;;17.90;58.36
14089;BME280;7120;52.890;6.040;2022-10-16T14:36:24;101585.34;;;17.99;59.00
14089;BME280;7120;52.890;6.040;2022-10-16T14:39:03;101591.34;;;18.01;57.78
14089;BME280;7120;52.890;6.040;2022-10-16T14:41:31;101593.84;;;17.94;58.63
14089;BME280;7120;52.890;6.040;2022-10-16T14:44:04;101594.69;;;18.15;57.57
14089;BME280;7120;52.890;6.040;2022-10-16T14:46:40;101596.09;;;18.00;57.73
14089;BME280;7120;52.890;6.040;2022-10-16T14:51:35;101604.91;;;17.94;58.83
14089;BME280;7120;52.890;6.040;2022-10-16T14:54:01;101593.50;;;17.95;58.41
14089;BME280;7120;52.890;6.040;2022-10-16T14:56:34;101586.91;;;18.08;58.47
14089;BME280;7120;52.890;6.040;2022-10-16T14:59:00;101582.34;;;18.13;60.60